11. August 2022

Uhrzeit Code Wetter Temp. Sichtweite Wolkendecke Wind METAR/SPECI
18:20
V
28 °C 10 km+ - 020° 020° 6 kt METAR ETNT 111620Z 02006KT 9999 28/14 Q1022 BLACKBLU+
17:20
V
29 °C 10 km+ - 020° 020° 5 kt METAR ETNT 111520Z 02005KT 9999 29/13 Q1022 BLACKBLU+
16:20
V
29 °C 10 km+ - 050° 050° 5 kt METAR ETNT 111420Z 05005KT 9999 FEW300 29/12 Q1022 BLACKBLU+
15:20
V
29 °C 10 km+ - 050° 050° 4 kt METAR ETNT 111320Z 05004KT 9999 FEW300 29/12 Q1023 BLACKBLU+
14:20
V
28 °C 10 km+ - 070° 070° 5 kt METAR ETNT 111220Z 07005KT 9999 FEW300 28/12 Q1023 BLACKBLU+
13:20
V
28 °C 10 km+ - 100° 100° 5 kt METAR ETNT 111120Z 10005KT 9999 FEW300 28/12 Q1023 BLACKBLU+
12:20
V
27 °C 10 km+ - 120° 120° 4 kt METAR ETNT 111020Z 12004KT 9999 FEW300 27/13 Q1024 BLACKBLU+
11:20
V
25 °C 10 km+ - 100° 100° 5 kt METAR ETNT 110920Z 10005KT 9999 FEW300 25/12 Q1024 BLACKBLU+
10:20
V
24 °C 10 km+ - 100° 100° 3 kt METAR ETNT 110820Z 10003KT 9999 FEW300 24/14 Q1024 BLACKBLU+
09:20
V
20 °C 10 km+ - 090° 090° 3 kt METAR ETNT 110720Z 09003KT 9999 20/15 Q1024 BLACKBLU+
08:20
V
17 °C 10 km+ - 090° 090° 3 kt METAR ETNT 110620Z 09003KT 9999 17/14 Q1024 BLACKBLU+
07:20
V
16 °C 10 km+ - 090° 090° 2 kt METAR ETNT 110520Z 09002KT 9999 16/13 Q1024 BLACKBLU+
06:20
V
13 °C 10 km+ - 060° 060° 2 kt METAR ETNT 110420Z 06002KT 9999 MIFG 13/13 Q1024 BLACKBLU+
05:20
L
0 °C 0 m - Var 000° 0 kt METAR ETNT 110320Z AUTO /////KT //// // ////// ///// Q//// ///
04:20
L
0 °C 0 m - Var 000° 0 kt METAR ETNT 110220Z AUTO /////KT //// // ////// ///// Q//// ///
03:20
L
0 °C 0 m - Var 000° 0 kt METAR ETNT 110120Z AUTO /////KT //// // ////// ///// Q//// ///
02:20
L
0 °C 0 m - Var 000° 0 kt METAR ETNT 110020Z AUTO /////KT //// // ////// ///// Q//// ///
01:20
L
0 °C 0 m - Var 000° 0 kt METAR ETNT 102320Z AUTO /////KT //// // ////// ///// Q//// ///
00:20
L
0 °C 0 m - Var 000° 0 kt METAR ETNT 102220Z AUTO /////KT //// // ////// ///// Q//// ///

10. August 2022

Uhrzeit Code Wetter Temp. Sichtweite Wolkendecke Wind METAR/SPECI
23:20
L
0 °C 0 m - Var 000° 0 kt METAR ETNT 102120Z AUTO /////KT //// // ////// ///// Q//// ///
22:20
L
0 °C 0 m - Var 000° 0 kt METAR ETNT 102020Z AUTO /////KT //// // ////// ///// Q//// ///
21:20
L
0 °C 0 m - Var 000° 0 kt METAR ETNT 101920Z AUTO /////KT //// // ////// ///// Q//// ///
20:20
L
0 °C 0 m - Var 000° 0 kt METAR ETNT 101820Z AUTO /////KT //// // ////// ///// Q//// ///
19:20
V
24 °C 10 km+ - 030° 030° 7 kt METAR ETNT 101720Z 03007KT 9999 FEW330 24/13 Q1025 BLACKBLU+
18:20
V
24 °C 10 km+ - 030° 030° 7 kt METAR ETNT 101620Z 03007KT 9999 FEW330 24/12 Q1026 BLACKBLU+
17:20
V
26 °C 10 km+ - 040° 040° 6 kt METAR ETNT 101520Z 04006KT 9999 FEW330 26/12 Q1026 BLACKBLU+
16:20
V
26 °C 10 km+ - 050° 050° 5 kt METAR ETNT 101420Z 05005KT 9999 FEW330 26/12 Q1026 BLACKBLU+
15:20
V
26 °C 10 km+ - 060° 060° 6 kt METAR ETNT 101320Z 06006KT 9999 FEW330 26/13 Q1026 BLACKBLU+
14:20
V
25 °C 10 km+ - 090° 090° 5 kt METAR ETNT 101220Z 09005KT 9999 FEW330 25/13 Q1027 BLACKBLU+
13:20
V
25 °C 10 km+ - 080° 080° 5 kt METAR ETNT 101120Z 08005KT 9999 FEW330 25/14 Q1027 BLACKBLU+
12:20
V
23 °C 10 km+ - 090° 090° 5 kt METAR ETNT 101020Z 09005KT 9999 FEW330 23/14 Q1028 BLACKBLU+
11:20
V
22 °C 10 km+ - 060° 060° 5 kt METAR ETNT 100920Z 06005KT 9999 FEW330 22/14 Q1028 BLACKBLU+
10:20
V
21 °C 10 km+ - 050° 050° 5 kt METAR ETNT 100820Z 05005KT 9999 FEW330 21/15 Q1028 BLACKBLU+
09:20
V
19 °C 10 km+ - 050° 050° 4 kt METAR ETNT 100720Z 05004KT 9999 FEW330 19/16 Q1028 BLACKBLU+
08:20
V
17 °C 10 km+ - 040° 040° 4 kt METAR ETNT 100620Z 04004KT 9999 SCT330 17/16 Q1028 BLACKBLU+
07:20
V
14 °C 10 km+ - 030° 030° 3 kt METAR ETNT 100520Z 03003KT 9999 SCT330 14/13 Q1025 BLACKBLU+
06:20
V
13 °C 8 km - 050° 050° 3 kt METAR ETNT 100420Z 05003KT 8000 MIFG SCT330 13/13 Q1028 BLACKBLU+
02:20
L
0 °C 0 m - Var 000° 0 kt METAR ETNT 100020Z AUTO /////KT //// // ////// ///// Q//// ///
01:20
L
0 °C 0 m - Var 000° 0 kt METAR ETNT 092320Z AUTO /////KT //// // ////// ///// Q//// ///
00:20
L
0 °C 0 m - Var 000° 0 kt METAR ETNT 092220Z AUTO /////KT //// // ////// ///// Q//// ///

9. August 2022

Uhrzeit Code Wetter Temp. Sichtweite Wolkendecke Wind METAR/SPECI
23:20
L
0 °C 0 m - Var 000° 0 kt METAR ETNT 092120Z AUTO /////KT //// // ////// ///// Q//// ///
22:20
L
0 °C 0 m - Var 000° 0 kt METAR ETNT 092020Z AUTO /////KT //// // ////// ///// Q//// ///
21:20
L
0 °C 0 m - Var 000° 0 kt METAR ETNT 091920Z AUTO /////KT //// // ////// ///// Q//// ///
20:20
L
0 °C 0 m - Var 000° 0 kt METAR ETNT 091820Z AUTO /////KT //// // ////// ///// Q//// ///
19:20
V
21 °C 10 km+ - 020° 020° 10 kt METAR ETNT 091720Z 02010KT 9999 FEW250 21/11 Q1029 BLACKBLU+
18:20
V
22 °C 10 km+ - 030° 030° 8 kt METAR ETNT 091620Z 03008KT 9999 FEW250 22/12 Q1029 BLACKBLU+
17:20
V
22 °C 10 km+ - 030° 030° 8 kt METAR ETNT 091520Z 03008KT 9999 FEW030 22/12 Q1029 BLACKBLU+
Ältere Daten

Wir und Dritte verfolgen dein Internetverhalten auf unserer Website mit Cookies. Wenn du fortfährst, gehen wir davon aus, dass du mit unserer Cookie-Richtlinie einverstanden bist. Mehr erfahren